createdAt,value
2018-04-02T00:00:55.860Z,70.46
2018-04-02T00:03:24.811Z,70.58
2018-04-02T00:05:53.687Z,70.59
2018-04-02T00:08:22.481Z,70.49
2018-04-02T00:10:50.913Z,70.47
2018-04-02T00:13:19.587Z,70.73
2018-04-02T00:15:49.257Z,70.63
2018-04-02T00:18:17.892Z,70.48
2018-04-02T00:20:46.361Z,70.34
2018-04-02T00:23:15.023Z,70.22
2018-04-02T00:25:43.769Z,70.26
2018-04-02T00:28:12.311Z,70.31
2018-04-02T00:30:40.998Z,70.36
2018-04-02T00:33:09.434Z,70.35
2018-04-02T00:35:37.831Z,70.23
2018-04-02T00:38:06.713Z,70.17
2018-04-02T00:40:35.091Z,70.15
2018-04-02T00:43:03.559Z,70.04
2018-04-02T00:45:32.767Z,70.04
2018-04-02T00:48:01.127Z,69.93
2018-04-02T00:50:29.466Z,69.87
2018-04-02T00:52:58.722Z,69.66
2018-04-02T00:55:27.066Z,69.87
2018-04-02T00:57:56.592Z,69.97
2018-04-02T01:00:25.539Z,69.83
2018-04-02T01:02:54.113Z,69.67
2018-04-02T01:05:22.651Z,69.48
2018-04-02T01:07:52.006Z,69.39
2018-04-02T01:10:20.607Z,69.22
2018-04-02T01:12:50.040Z,69.24
2018-04-02T01:15:18.673Z,69.23
2018-04-02T01:17:47.255Z,69.37
2018-04-02T01:20:16.102Z,69.54
2018-04-02T01:22:44.941Z,69.56
2018-04-02T01:25:13.678Z,69.59
2018-04-02T01:27:42.190Z,69.67
2018-04-02T01:30:10.587Z,69.64
2018-04-02T01:32:39.014Z,69.61
2018-04-02T01:35:07.455Z,69.55
2018-04-02T01:37:37.009Z,69.53
2018-04-02T01:40:05.360Z,69.62
2018-04-02T01:42:33.779Z,69.73
2018-04-02T01:45:02.180Z,69.72
2018-04-02T01:47:30.516Z,69.71
2018-04-02T01:49:58.890Z,69.89
2018-04-02T01:52:27.352Z,70.06
2018-04-02T01:54:55.830Z,70.22
2018-04-02T01:57:24.356Z,70.50
2018-04-02T01:59:52.771Z,70.70
2018-04-02T02:02:21.125Z,70.89
2018-04-02T02:04:49.560Z,71.16
2018-04-02T02:07:18.168Z,71.29
2018-04-02T02:09:46.586Z,71.30
2018-04-02T02:12:15.102Z,71.29
2018-04-02T02:14:43.481Z,71.49
2018-04-02T02:17:11.957Z,71.48
2018-04-02T02:19:40.381Z,71.26
2018-04-02T02:22:08.765Z,71.28
2018-04-02T02:24:37.153Z,71.42
2018-04-02T02:27:05.511Z,71.77
2018-04-02T02:29:33.908Z,71.95
2018-04-02T02:32:02.515Z,71.95
2018-04-02T02:34:30.932Z,72.00
2018-04-02T02:36:59.820Z,72.06
2018-04-02T02:39:28.221Z,72.06
2018-04-02T02:41:56.620Z,72.09
2018-04-02T02:44:25.972Z,72.26
2018-04-02T02:46:54.524Z,72.43
2018-04-02T02:49:23.003Z,72.56
2018-04-02T02:51:51.538Z,72.70
2018-04-02T02:54:19.947Z,72.76
2018-04-02T02:56:48.354Z,72.93
2018-04-02T02:59:16.929Z,73.00
2018-04-02T03:01:45.673Z,73.17
2018-04-02T03:04:14.093Z,73.28
2018-04-02T03:06:42.688Z,73.37
2018-04-02T03:09:11.160Z,73.33
2018-04-02T03:11:39.566Z,73.44
2018-04-02T03:14:08.710Z,73.61
2018-04-02T03:16:37.090Z,73.59
2018-04-02T03:19:05.430Z,73.56
2018-04-02T03:21:34.074Z,73.69
2018-04-02T03:24:02.467Z,73.80
2018-04-02T03:26:30.843Z,73.80
2018-04-02T03:28:59.323Z,73.81
2018-04-02T03:31:27.722Z,73.92
2018-04-02T03:33:56.134Z,73.87
2018-04-02T03:36:24.531Z,73.90
2018-04-02T03:38:52.962Z,73.87
2018-04-02T03:41:21.361Z,73.93
2018-04-02T03:43:49.993Z,73.88
2018-04-02T03:46:24.193Z,73.97
2018-04-02T03:48:52.758Z,74.01
2018-04-02T03:51:21.097Z,74.12
2018-04-02T03:53:49.501Z,74.18
2018-04-02T03:56:18.126Z,74.25
2018-04-02T03:58:46.842Z,74.29
2018-04-02T04:01:15.452Z,74.36
2018-04-02T04:03:44.705Z,74.53
2018-04-02T04:06:13.114Z,74.56
2018-04-02T04:08:41.613Z,74.68
2018-04-02T04:11:10.109Z,74.80
2018-04-02T04:13:40.383Z,74.83
2018-04-02T04:16:08.745Z,74.81
2018-04-02T04:18:37.144Z,74.77
2018-04-02T04:21:05.517Z,74.73
2018-04-02T04:23:33.862Z,74.62
2018-04-02T04:26:02.585Z,74.56
2018-04-02T04:28:30.941Z,74.41
2018-04-02T04:30:59.337Z,74.44
2018-04-02T04:33:27.749Z,74.45
2018-04-02T04:35:56.107Z,74.51
2018-04-02T04:38:24.466Z,74.66
2018-04-02T04:40:53.372Z,74.64
2018-04-02T04:43:21.724Z,74.63
2018-04-02T04:45:50.071Z,74.66
2018-04-02T04:48:19.323Z,74.75
2018-04-02T04:50:47.704Z,74.85
2018-04-02T04:53:16.386Z,74.90
2018-04-02T04:55:44.808Z,74.83
2018-04-02T04:58:13.254Z,74.87
2018-04-02T05:00:41.662Z,74.71
2018-04-02T05:03:10.409Z,74.65
2018-04-02T05:05:38.797Z,74.58
2018-04-02T05:08:07.196Z,74.54
2018-04-02T05:10:36.178Z,74.53
2018-04-02T05:13:04.547Z,74.58
2018-04-02T05:15:32.993Z,74.59
2018-04-02T05:18:01.368Z,74.59
2018-04-02T05:20:29.739Z,74.54
2018-04-02T05:22:58.082Z,74.55
2018-04-02T05:25:28.044Z,74.56
2018-04-02T05:27:56.482Z,74.59
2018-04-02T05:30:25.037Z,74.42
2018-04-02T05:32:54.295Z,74.52
2018-04-02T05:35:22.842Z,74.40
2018-04-02T05:37:51.308Z,74.38
2018-04-02T05:40:21.608Z,74.39
2018-04-02T05:42:50.558Z,74.26
2018-04-02T05:45:19.110Z,74.32
2018-04-02T05:47:47.936Z,74.24
2018-04-02T05:50:16.413Z,74.22
2018-04-02T05:52:44.859Z,74.32
2018-04-02T05:55:13.526Z,74.30
2018-04-02T05:57:42.048Z,74.14
2018-04-02T06:00:10.437Z,74.01
2018-04-02T06:02:38.841Z,73.96
2018-04-02T06:05:07.214Z,73.92
2018-04-02T06:07:35.559Z,73.82
2018-04-02T06:10:04.553Z,73.66
2018-04-02T06:12:36.380Z,73.47
2018-04-02T06:15:04.781Z,73.41
2018-04-02T06:17:33.226Z,73.10
2018-04-02T06:20:02.638Z,72.96
2018-04-02T06:22:30.978Z,72.74
2018-04-02T06:24:59.501Z,72.33
2018-04-02T06:27:27.915Z,71.94
2018-04-02T06:29:56.537Z,71.75
2018-04-02T06:32:25.258Z,71.36
2018-04-02T06:34:53.871Z,70.68
2018-04-02T06:37:23.372Z,70.06
2018-04-02T06:39:52.368Z,69.92
2018-04-02T06:42:20.987Z,69.72
2018-04-02T06:44:49.711Z,69.27
2018-04-02T06:47:18.553Z,68.78
2018-04-02T06:49:47.823Z,68.04
2018-04-02T06:52:16.334Z,68.05
2018-04-02T06:54:44.814Z,68.03
2018-04-02T06:57:13.244Z,67.82
2018-04-02T06:59:41.819Z,67.37
2018-04-02T07:02:12.231Z,66.59
2018-04-02T07:04:40.610Z,66.65
2018-04-02T07:07:09.057Z,66.20
2018-04-02T07:09:37.739Z,65.58
2018-04-02T07:12:06.370Z,65.17
2018-04-02T07:14:34.714Z,65.13
2018-04-02T07:17:03.385Z,64.78
2018-04-02T07:19:33.509Z,64.81
2018-04-02T07:22:01.985Z,64.48
2018-04-02T07:24:30.541Z,64.48
2018-04-02T07:26:58.918Z,63.96
2018-04-02T07:29:27.336Z,63.53
2018-04-02T07:31:55.883Z,63.47
2018-04-02T07:34:24.313Z,62.94
2018-04-02T07:36:52.879Z,62.57
2018-04-02T07:39:21.717Z,61.85
2018-04-02T07:41:50.166Z,62.11
2018-04-02T07:44:18.627Z,62.37
2018-04-02T07:46:47.158Z,62.44
2018-04-02T07:49:17.477Z,61.76
2018-04-02T07:51:45.969Z,61.11
2018-04-02T07:54:14.981Z,61.54
2018-04-02T07:56:44.616Z,60.74
2018-04-02T07:59:14.028Z,61.27
2018-04-02T08:01:42.646Z,60.24
2018-04-02T08:04:11.018Z,59.49
2018-04-02T08:06:39.411Z,59.45
2018-04-02T08:09:08.632Z,59.30
2018-04-02T08:11:37.037Z,58.69
2018-04-02T08:14:05.405Z,58.47
2018-04-02T08:16:34.275Z,58.02
2018-04-02T08:19:02.727Z,57.83
2018-04-02T08:21:31.270Z,57.58
2018-04-02T08:24:00.478Z,57.38
2018-04-02T08:26:28.950Z,57.37
2018-04-02T08:28:57.988Z,57.00
2018-04-02T08:31:27.177Z,56.74
2018-04-02T08:33:55.898Z,56.76
2018-04-02T08:36:29.288Z,56.72
2018-04-02T08:38:58.031Z,55.79
2018-04-02T08:41:27.228Z,55.72
2018-04-02T08:43:56.128Z,55.89
2018-04-02T08:46:24.636Z,54.98
2018-04-02T08:48:53.469Z,54.49
2018-04-02T08:51:21.880Z,54.63
2018-04-02T08:53:50.639Z,53.94
2018-04-02T08:56:19.280Z,53.97
2018-04-02T08:58:48.119Z,52.91
2018-04-02T09:01:16.840Z,52.86
2018-04-02T09:03:46.814Z,52.79
2018-04-02T09:06:15.348Z,51.86
2018-04-02T09:08:44.197Z,49.83
2018-04-02T09:11:13.048Z,48.03
2018-04-02T09:13:42.800Z,46.71
2018-04-02T09:16:11.897Z,45.63
2018-04-02T09:18:40.626Z,44.58
2018-04-02T09:21:10.125Z,42.49
2018-04-02T09:23:38.556Z,40.52
2018-04-02T09:26:06.930Z,42.34
2018-04-02T09:28:35.325Z,42.97
2018-04-02T09:31:03.689Z,42.42
2018-04-02T09:33:32.111Z,42.02
2018-04-02T09:36:00.537Z,40.16
2018-04-02T09:38:28.915Z,38.59
2018-04-02T09:40:57.403Z,39.05
2018-04-02T09:43:26.297Z,38.91
2018-04-02T09:45:54.801Z,38.93
2018-04-02T09:48:23.343Z,37.51
2018-04-02T09:50:52.068Z,35.24
2018-04-02T09:53:20.577Z,34.37
2018-04-02T09:55:48.995Z,33.80
2018-04-02T09:58:17.745Z,32.60
2018-04-02T10:00:46.282Z,32.17
2018-04-02T10:03:14.860Z,31.72
2018-04-02T10:05:44.625Z,30.67
2018-04-02T10:08:13.314Z,30.94
2018-04-02T10:10:41.948Z,30.27
2018-04-02T10:13:11.450Z,29.48
2018-04-02T10:15:39.883Z,31.33
2018-04-02T10:18:08.568Z,28.61
2018-04-02T10:20:38.379Z,28.08
2018-04-02T10:23:07.396Z,27.62
2018-04-02T10:25:35.978Z,27.38
2018-04-02T10:28:05.683Z,27.56
2018-04-02T10:30:34.404Z,27.41
2018-04-02T10:33:03.302Z,27.83
2018-04-02T10:35:31.938Z,27.94
2018-04-02T10:38:00.657Z,27.84
2018-04-02T10:40:30.048Z,27.92
2018-04-02T10:42:59.436Z,26.51
2018-04-02T10:45:28.008Z,25.73
2018-04-02T10:47:56.835Z,26.33
2018-04-02T10:50:26.155Z,25.78
2018-04-02T10:52:55.450Z,27.15
2018-04-02T10:55:24.313Z,27.73
2018-04-02T10:57:53.415Z,27.76
2018-04-02T11:00:22.313Z,27.78
2018-04-02T11:02:51.536Z,27.76
2018-04-02T11:05:20.596Z,28.07
2018-04-02T11:07:50.306Z,28.76
2018-04-02T11:10:19.604Z,29.73
2018-04-02T11:12:49.010Z,30.25
2018-04-02T11:15:19.621Z,29.83
2018-04-02T11:17:48.931Z,29.06
2018-04-02T11:20:18.633Z,29.67
2018-04-02T11:22:47.340Z,30.01
2018-04-02T11:25:17.234Z,29.57
2018-04-02T11:27:47.618Z,29.81
2018-04-02T11:30:15.965Z,29.63
2018-04-02T11:32:44.340Z,28.78
2018-04-02T11:35:12.990Z,29.55
2018-04-02T11:37:41.494Z,29.45
2018-04-02T11:40:10.110Z,29.24
2018-04-02T11:42:38.658Z,29.75
2018-04-02T11:45:07.162Z,30.42
2018-04-02T11:47:35.896Z,30.42
2018-04-02T11:50:05.956Z,29.97
2018-04-02T11:52:35.644Z,29.82
2018-04-02T11:55:04.863Z,31.13
2018-04-02T11:57:33.968Z,30.37
2018-04-02T12:00:02.694Z,30.67
2018-04-02T12:02:31.554Z,29.02
2018-04-02T12:05:00.063Z,28.80
2018-04-02T12:07:29.519Z,28.79
2018-04-02T12:09:58.299Z,29.48
2018-04-02T12:12:27.925Z,28.17
2018-04-02T12:14:56.701Z,28.43
2018-04-02T12:17:25.229Z,29.26
2018-04-02T12:19:53.867Z,28.75
2018-04-02T12:22:22.329Z,29.32
2018-04-02T12:24:51.057Z,29.64
2018-04-02T12:27:20.496Z,29.71
2018-04-02T12:29:49.009Z,30.56
2018-04-02T12:32:17.472Z,29.63
2018-04-02T12:34:46.687Z,28.73
2018-04-02T12:37:15.042Z,28.88
2018-04-02T12:39:43.388Z,28.70
2018-04-02T12:42:11.822Z,29.67
2018-04-02T12:44:40.212Z,30.00
2018-04-02T12:47:08.610Z,29.65
2018-04-02T12:49:37.005Z,30.21
2018-04-02T12:52:05.414Z,31.31
2018-04-02T12:54:33.793Z,31.51
2018-04-02T12:57:02.221Z,31.00
2018-04-02T12:59:31.880Z,29.33
2018-04-02T13:02:00.284Z,28.57
2018-04-02T13:04:28.712Z,28.63
2018-04-02T13:06:57.153Z,29.38
2018-04-02T13:09:25.630Z,29.95
2018-04-02T13:11:54.361Z,30.60
2018-04-02T13:14:22.925Z,31.77
2018-04-02T13:16:51.832Z,33.35
2018-04-02T13:19:21.095Z,33.47
2018-04-02T13:21:49.984Z,34.30
2018-04-02T13:24:18.483Z,34.56
2018-04-02T13:26:46.910Z,34.67
2018-04-02T13:29:15.378Z,34.46
2018-04-02T13:31:43.802Z,34.06
2018-04-02T13:34:12.566Z,33.88
2018-04-02T13:36:40.980Z,34.24
2018-04-02T13:39:09.393Z,33.86
2018-04-02T13:41:37.849Z,33.52
2018-04-02T13:44:06.311Z,33.35
2018-04-02T13:46:35.622Z,33.89
2018-04-02T13:49:04.769Z,33.97
2018-04-02T13:51:33.124Z,33.53
2018-04-02T13:54:01.525Z,33.62
2018-04-02T13:56:30.126Z,34.03
2018-04-02T13:58:58.488Z,34.34
2018-04-02T14:01:27.406Z,34.63
2018-04-02T14:03:56.314Z,34.76
2018-04-02T14:06:24.763Z,35.30
2018-04-02T14:08:56.413Z,35.68
2018-04-02T14:11:24.929Z,35.79
2018-04-02T14:13:53.383Z,36.46
2018-04-02T14:16:22.376Z,35.75
2018-04-02T14:18:50.845Z,35.79
2018-04-02T14:21:19.496Z,36.03
2018-04-02T14:23:48.987Z,35.90
2018-04-02T14:26:18.718Z,34.85
2018-04-02T14:28:47.492Z,35.34
2018-04-02T14:31:15.905Z,35.31
2018-04-02T14:33:44.382Z,34.81
2018-04-02T14:36:12.785Z,34.81
2018-04-02T14:38:41.200Z,34.68
2018-04-02T14:41:10.707Z,34.63
2018-04-02T14:43:39.063Z,34.94
2018-04-02T14:46:08.074Z,36.03
2018-04-02T14:48:36.466Z,36.04
2018-04-02T14:51:04.898Z,36.28
2018-04-02T14:53:33.295Z,36.41
2018-04-02T14:56:02.615Z,36.65
2018-04-02T14:58:31.911Z,37.61
2018-04-02T15:01:00.509Z,37.17
2018-04-02T15:03:28.925Z,36.70
2018-04-02T15:05:57.431Z,36.64
2018-04-02T15:08:26.116Z,36.70
2018-04-02T15:10:55.559Z,36.87
2018-04-02T15:13:24.204Z,37.56
2018-04-02T15:15:53.685Z,38.42
2018-04-02T15:18:22.396Z,39.61
2018-04-02T15:20:52.301Z,39.49
2018-04-02T15:23:20.766Z,39.22
2018-04-02T15:25:49.201Z,39.32
2018-04-02T15:28:18.634Z,39.55
2018-04-02T15:30:47.086Z,39.99
2018-04-02T15:33:15.568Z,40.22
2018-04-02T15:35:43.948Z,40.44
2018-04-02T15:38:12.323Z,40.46
2018-04-02T15:40:40.708Z,41.07
2018-04-02T15:43:09.136Z,40.54
2018-04-02T15:45:37.526Z,41.11
2018-04-02T15:48:08.115Z,40.60
2018-04-02T15:50:36.590Z,40.19
2018-04-02T15:53:05.077Z,40.60
2018-04-02T15:55:34.322Z,41.03
2018-04-02T15:58:03.159Z,41.07
2018-04-02T16:00:31.671Z,41.64
2018-04-02T16:03:00.252Z,41.12
2018-04-02T16:05:28.706Z,40.60
2018-04-02T16:07:57.383Z,40.88
2018-04-02T16:10:25.994Z,40.58
2018-04-02T16:12:54.456Z,40.43
2018-04-02T16:15:23.468Z,39.70
2018-04-02T16:17:52.040Z,40.26
2018-04-02T16:20:20.430Z,39.59
2018-04-02T16:22:49.034Z,39.28
2018-04-02T16:25:17.701Z,39.52
2018-04-02T16:27:46.092Z,39.65
2018-04-02T16:30:14.439Z,39.81
2018-04-02T16:32:42.899Z,39.72
2018-04-02T16:35:11.317Z,39.46
2018-04-02T16:37:41.662Z,39.36
2018-04-02T16:40:10.928Z,40.15
2018-04-02T16:42:39.345Z,40.00
2018-04-02T16:45:07.690Z,40.26
2018-04-02T16:47:36.070Z,40.16
2018-04-02T16:50:04.441Z,40.25
2018-04-02T16:52:33.744Z,40.69
2018-04-02T16:55:02.164Z,41.06
2018-04-02T16:57:30.503Z,40.98
2018-04-02T16:59:58.969Z,41.57
2018-04-02T17:02:27.623Z,41.29
2018-04-02T17:04:55.998Z,41.28
2018-04-02T17:07:24.997Z,41.45
2018-04-02T17:09:53.829Z,41.79
2018-04-02T17:12:23.678Z,42.41
2018-04-02T17:14:52.199Z,42.30
2018-04-02T17:17:20.700Z,42.82
2018-04-02T17:19:49.168Z,42.54
2018-04-02T17:22:17.621Z,42.40
2018-04-02T17:24:46.065Z,42.96
2018-04-02T17:27:14.569Z,42.42
2018-04-02T17:29:42.877Z,43.15
2018-04-02T17:32:11.546Z,44.45
2018-04-02T17:34:39.905Z,45.16
2018-04-02T17:37:08.284Z,45.48
2018-04-02T17:39:36.644Z,45.75
2018-04-02T17:42:05.166Z,45.79
2018-04-02T17:44:33.544Z,50.11
2018-04-02T17:47:01.934Z,50.89
2018-04-02T17:49:30.276Z,52.15
2018-04-02T17:51:58.700Z,53.30
2018-04-02T17:54:27.321Z,52.36
2018-04-02T17:56:55.805Z,52.92
2018-04-02T17:59:24.487Z,52.17
2018-04-02T18:01:54.178Z,52.63
2018-04-02T18:04:22.938Z,52.74
2018-04-02T18:06:51.402Z,52.78
2018-04-02T18:09:19.891Z,52.85
2018-04-02T18:11:48.597Z,53.13
2018-04-02T18:14:17.939Z,53.72
2018-04-02T18:16:46.857Z,55.17
2018-04-02T18:19:15.233Z,55.00
2018-04-02T18:21:43.845Z,55.08
2018-04-02T18:24:12.650Z,55.36
2018-04-02T18:26:41.085Z,55.58
2018-04-02T18:29:09.520Z,55.22
2018-04-02T18:31:39.074Z,56.08
2018-04-02T18:34:07.574Z,56.51
2018-04-02T18:36:35.952Z,56.21
2018-04-02T18:39:04.521Z,56.07
2018-04-02T18:41:33.001Z,56.49
2018-04-02T18:44:01.533Z,55.98
2018-04-02T18:46:30.004Z,56.10
2018-04-02T18:48:58.539Z,56.62
2018-04-02T18:51:27.125Z,56.78
2018-04-02T18:53:56.602Z,56.75
2018-04-02T18:56:27.036Z,56.35
2018-04-02T18:58:55.548Z,57.63
2018-04-02T19:01:24.094Z,57.75
2018-04-02T19:03:53.817Z,58.42
2018-04-02T19:06:22.288Z,57.89
2018-04-02T19:08:50.877Z,57.76
2018-04-02T19:11:19.461Z,58.04
2018-04-02T19:13:48.062Z,58.40
2018-04-02T19:16:17.035Z,57.80
2018-04-02T19:18:45.429Z,57.97
2018-04-02T19:21:13.902Z,57.95
2018-04-02T19:23:42.723Z,57.92
2018-04-02T19:26:11.097Z,57.43
2018-04-02T19:28:39.459Z,57.35
2018-04-02T19:31:07.878Z,57.67
2018-04-02T19:33:36.256Z,57.19
2018-04-02T19:36:04.648Z,57.54
2018-04-02T19:38:33.090Z,57.40
2018-04-02T19:41:01.551Z,57.59
2018-04-02T19:43:30.111Z,57.34
2018-04-02T19:45:59.137Z,57.27
2018-04-02T19:48:27.700Z,56.49
2018-04-02T19:50:56.182Z,56.85
2018-04-02T19:53:25.175Z,57.22
2018-04-02T19:55:53.720Z,57.46
2018-04-02T19:58:22.352Z,57.08
2018-04-02T20:00:51.141Z,57.33
2018-04-02T20:03:19.721Z,57.02
2018-04-02T20:05:48.441Z,56.76
2018-04-02T20:08:17.233Z,56.46
2018-04-02T20:10:45.589Z,56.54
2018-04-02T20:13:14.506Z,56.83
2018-04-02T20:15:43.812Z,57.14
2018-04-02T20:18:12.199Z,57.34
2018-04-02T20:20:40.608Z,57.46
2018-04-02T20:23:09.398Z,58.20
2018-04-02T20:25:37.697Z,58.59
2018-04-02T20:28:06.079Z,58.79
2018-04-02T20:30:35.531Z,58.79
2018-04-02T20:33:03.957Z,58.70
2018-04-02T20:35:32.318Z,59.32
2018-04-02T20:38:01.116Z,59.35
2018-04-02T20:40:29.525Z,59.96
2018-04-02T20:42:58.137Z,60.40
2018-04-02T20:45:26.775Z,60.99
2018-04-02T20:47:55.281Z,60.04
2018-04-02T20:50:23.717Z,61.18
2018-04-02T20:52:53.089Z,62.06
2018-04-02T20:55:21.544Z,61.40
2018-04-02T20:57:50.042Z,61.20
2018-04-02T21:00:19.176Z,60.81
2018-04-02T21:02:48.152Z,61.63
2018-04-02T21:05:16.666Z,62.08
2018-04-02T21:07:45.159Z,62.29
2018-04-02T21:10:13.538Z,62.28
2018-04-02T21:12:41.917Z,62.05
2018-04-02T21:15:12.579Z,61.65
2018-04-02T21:17:40.958Z,61.62
2018-04-02T21:20:09.765Z,62.33
2018-04-02T21:22:38.544Z,63.02
2018-04-02T21:25:06.976Z,62.15
2018-04-02T21:27:35.374Z,62.63
2018-04-02T21:30:03.727Z,62.59
2018-04-02T21:32:32.112Z,63.07
2018-04-02T21:35:00.511Z,63.19
2018-04-02T21:37:30.217Z,63.47
2018-04-02T21:39:58.798Z,63.92
2018-04-02T21:42:27.627Z,64.43
2018-04-02T21:44:56.579Z,64.99
2018-04-02T21:47:25.111Z,65.29
2018-04-02T21:49:53.609Z,65.08
2018-04-02T21:52:22.846Z,64.40
2018-04-02T21:54:51.429Z,65.32
2018-04-02T21:57:20.652Z,65.72
2018-04-02T21:59:49.531Z,65.68
2018-04-02T22:02:18.091Z,65.42
2018-04-02T22:04:46.655Z,64.94
2018-04-02T22:07:15.040Z,65.98
2018-04-02T22:09:43.536Z,65.56
2018-04-02T22:12:11.898Z,65.58
2018-04-02T22:14:40.733Z,66.19
2018-04-02T22:17:09.144Z,66.07
2018-04-02T22:19:37.550Z,66.32
2018-04-02T22:22:05.970Z,65.91
2018-04-02T22:24:34.335Z,66.60
2018-04-02T22:27:02.729Z,66.25
2018-04-02T22:29:31.319Z,65.90
2018-04-02T22:31:59.659Z,66.02
2018-04-02T22:34:28.255Z,66.36
2018-04-02T22:36:57.766Z,67.02
2018-04-02T22:39:26.331Z,67.21
2018-04-02T22:41:54.898Z,67.90
2018-04-02T22:44:23.335Z,67.63
2018-04-02T22:46:51.739Z,67.94
2018-04-02T22:49:20.317Z,68.44
2018-04-02T22:51:48.736Z,68.44
2018-04-02T22:54:17.101Z,69.07
2018-04-02T22:56:45.644Z,69.02
2018-04-02T22:59:14.871Z,69.88
2018-04-02T23:01:43.272Z,70.63
2018-04-02T23:04:12.977Z,70.22
2018-04-02T23:06:41.637Z,71.22
2018-04-02T23:09:09.991Z,71.30
2018-04-02T23:11:42.279Z,71.48
2018-04-02T23:14:11.619Z,71.97
2018-04-02T23:16:39.967Z,72.23
2018-04-02T23:19:09.492Z,72.72
2018-04-02T23:21:37.849Z,72.82
2018-04-02T23:24:06.662Z,72.86
2018-04-02T23:26:35.951Z,73.23
2018-04-02T23:29:04.427Z,73.35
2018-04-02T23:31:33.674Z,73.70
2018-04-02T23:34:02.585Z,73.99
2018-04-02T23:36:30.945Z,73.84
2018-04-02T23:38:59.753Z,73.84
2018-04-02T23:41:28.220Z,74.74
2018-04-02T23:43:56.784Z,74.55
2018-04-02T23:46:25.397Z,74.79
2018-04-02T23:48:54.195Z,74.59
2018-04-02T23:51:23.908Z,74.47
2018-04-02T23:53:52.274Z,74.04
2018-04-02T23:56:20.906Z,74.10
2018-04-02T23:58:49.727Z,74.49
